sensor_id;sensor_type;location;lat;lon;timestamp;P1;durP1;ratioP1;P2;durP2;ratioP2
72797;SDS011;61084;55.816;37.036;2023-07-29T00:00:31;5.50;;;2.30;;
72797;SDS011;61084;55.816;37.036;2023-07-29T00:02:58;4.18;;;2.30;;
72797;SDS011;61084;55.816;37.036;2023-07-29T00:05:23;3.70;;;1.98;;
72797;SDS011;61084;55.816;37.036;2023-07-29T00:07:50;4.38;;;2.20;;
72797;SDS011;61084;55.816;37.036;2023-07-29T00:10:16;5.88;;;2.72;;
72797;SDS011;61084;55.816;37.036;2023-07-29T00:12:42;3.63;;;1.95;;
72797;SDS011;61084;55.816;37.036;2023-07-29T00:15:08;5.95;;;2.50;;
72797;SDS011;61084;55.816;37.036;2023-07-29T00:17:34;5.20;;;2.55;;
72797;SDS011;61084;55.816;37.036;2023-07-29T00:20:00;4.25;;;2.05;;
72797;SDS011;61084;55.816;37.036;2023-07-29T00:22:26;6.47;;;2.15;;
72797;SDS011;61084;55.816;37.036;2023-07-29T00:24:52;3.42;;;2.03;;
72797;SDS011;61084;55.816;37.036;2023-07-29T00:27:22;4.75;;;2.28;;
72797;SDS011;61084;55.816;37.036;2023-07-29T00:29:49;5.68;;;2.50;;
72797;SDS011;61084;55.816;37.036;2023-07-29T00:32:15;4.93;;;2.70;;
72797;SDS011;61084;55.816;37.036;2023-07-29T00:34:41;6.30;;;2.75;;
72797;SDS011;61084;55.816;37.036;2023-07-29T00:37:06;6.13;;;2.65;;
72797;SDS011;61084;55.816;37.036;2023-07-29T00:39:32;5.78;;;2.67;;
72797;SDS011;61084;55.816;37.036;2023-07-29T00:41:58;8.18;;;2.58;;
72797;SDS011;61084;55.816;37.036;2023-07-29T00:44:24;4.93;;;3.28;;
72797;SDS011;61084;55.816;37.036;2023-07-29T00:46:51;3.50;;;2.92;;
72797;SDS011;61084;55.816;37.036;2023-07-29T00:49:20;6.35;;;3.30;;
72797;SDS011;61084;55.816;37.036;2023-07-29T00:51:46;7.05;;;2.50;;
72797;SDS011;61084;55.816;37.036;2023-07-29T00:54:13;4.47;;;2.65;;
72797;SDS011;61084;55.816;37.036;2023-07-29T00:56:40;4.50;;;2.38;;
72797;SDS011;61084;55.816;37.036;2023-07-29T00:59:05;4.57;;;2.42;;
72797;SDS011;61084;55.816;37.036;2023-07-29T01:01:32;2.90;;;2.40;;
72797;SDS011;61084;55.816;37.036;2023-07-29T01:03:58;7.93;;;2.60;;
72797;SDS011;61084;55.816;37.036;2023-07-29T01:06:29;2.65;;;2.33;;
72797;SDS011;61084;55.816;37.036;2023-07-29T01:09:09;2.70;;;2.20;;
72797;SDS011;61084;55.816;37.036;2023-07-29T01:12:12;4.90;;;2.13;;
72797;SDS011;61084;55.816;37.036;2023-07-29T01:14:55;4.78;;;2.40;;
72797;SDS011;61084;55.816;37.036;2023-07-29T01:17:29;3.72;;;2.45;;
72797;SDS011;61084;55.816;37.036;2023-07-29T01:20:03;4.72;;;2.50;;
72797;SDS011;61084;55.816;37.036;2023-07-29T01:22:37;4.80;;;2.65;;
72797;SDS011;61084;55.816;37.036;2023-07-29T01:25:05;3.95;;;2.47;;
72797;SDS011;61084;55.816;37.036;2023-07-29T01:27:31;7.32;;;2.97;;
72797;SDS011;61084;55.816;37.036;2023-07-29T01:29:58;4.78;;;2.70;;
72797;SDS011;61084;55.816;37.036;2023-07-29T01:35:03;4.22;;;2.63;;
72797;SDS011;61084;55.816;37.036;2023-07-29T01:37:35;4.30;;;2.58;;
72797;SDS011;61084;55.816;37.036;2023-07-29T01:40:04;8.15;;;2.95;;
72797;SDS011;61084;55.816;37.036;2023-07-29T01:42:33;3.70;;;2.85;;
72797;SDS011;61084;55.816;37.036;2023-07-29T01:45:00;6.40;;;3.20;;
72797;SDS011;61084;55.816;37.036;2023-07-29T01:47:26;4.72;;;2.97;;
72797;SDS011;61084;55.816;37.036;2023-07-29T01:49:54;7.22;;;3.10;;
72797;SDS011;61084;55.816;37.036;2023-07-29T01:52:20;8.57;;;3.30;;
72797;SDS011;61084;55.816;37.036;2023-07-29T01:54:47;4.70;;;2.88;;
72797;SDS011;61084;55.816;37.036;2023-07-29T01:57:13;4.38;;;2.92;;
72797;SDS011;61084;55.816;37.036;2023-07-29T01:59:38;5.80;;;2.20;;
72797;SDS011;61084;55.816;37.036;2023-07-29T02:02:04;3.55;;;2.22;;
72797;SDS011;61084;55.816;37.036;2023-07-29T02:04:30;4.63;;;2.40;;
72797;SDS011;61084;55.816;37.036;2023-07-29T02:06:56;6.43;;;2.33;;
72797;SDS011;61084;55.816;37.036;2023-07-29T02:09:22;5.53;;;2.55;;
72797;SDS011;61084;55.816;37.036;2023-07-29T02:11:47;4.25;;;2.55;;
72797;SDS011;61084;55.816;37.036;2023-07-29T02:14:13;7.50;;;3.00;;
72797;SDS011;61084;55.816;37.036;2023-07-29T02:16:39;7.03;;;3.25;;
72797;SDS011;61084;55.816;37.036;2023-07-29T02:19:25;6.72;;;3.38;;
72797;SDS011;61084;55.816;37.036;2023-07-29T02:21:50;8.43;;;3.38;;
72797;SDS011;61084;55.816;37.036;2023-07-29T02:24:16;10.85;;;3.63;;
72797;SDS011;61084;55.816;37.036;2023-07-29T02:26:42;10.20;;;3.78;;
72797;SDS011;61084;55.816;37.036;2023-07-29T02:29:08;9.27;;;3.70;;
72797;SDS011;61084;55.816;37.036;2023-07-29T02:31:34;6.00;;;3.58;;
72797;SDS011;61084;55.816;37.036;2023-07-29T02:34:02;8.25;;;4.32;;
72797;SDS011;61084;55.816;37.036;2023-07-29T02:36:27;6.53;;;3.90;;
72797;SDS011;61084;55.816;37.036;2023-07-29T02:38:53;7.13;;;4.10;;
72797;SDS011;61084;55.816;37.036;2023-07-29T02:41:20;4.95;;;3.53;;
72797;SDS011;61084;55.816;37.036;2023-07-29T02:43:49;6.88;;;3.92;;
72797;SDS011;61084;55.816;37.036;2023-07-29T02:46:15;6.85;;;3.42;;
72797;SDS011;61084;55.816;37.036;2023-07-29T02:48:42;5.18;;;3.45;;
72797;SDS011;61084;55.816;37.036;2023-07-29T02:51:08;5.00;;;3.67;;
72797;SDS011;61084;55.816;37.036;2023-07-29T02:53:34;6.25;;;3.33;;
72797;SDS011;61084;55.816;37.036;2023-07-29T02:56:02;4.30;;;3.40;;
72797;SDS011;61084;55.816;37.036;2023-07-29T02:58:29;6.35;;;3.42;;
72797;SDS011;61084;55.816;37.036;2023-07-29T03:01:01;7.45;;;4.40;;
72797;SDS011;61084;55.816;37.036;2023-07-29T03:03:28;4.45;;;3.20;;
72797;SDS011;61084;55.816;37.036;2023-07-29T03:06:04;7.32;;;3.45;;
72797;SDS011;61084;55.816;37.036;2023-07-29T03:08:32;6.43;;;3.40;;
72797;SDS011;61084;55.816;37.036;2023-07-29T03:10:58;4.93;;;3.15;;
72797;SDS011;61084;55.816;37.036;2023-07-29T03:13:30;5.20;;;3.17;;
72797;SDS011;61084;55.816;37.036;2023-07-29T03:16:04;8.93;;;3.42;;
72797;SDS011;61084;55.816;37.036;2023-07-29T03:18:49;5.07;;;3.50;;
72797;SDS011;61084;55.816;37.036;2023-07-29T03:21:15;9.70;;;3.40;;
72797;SDS011;61084;55.816;37.036;2023-07-29T03:23:41;4.13;;;2.92;;
72797;SDS011;61084;55.816;37.036;2023-07-29T03:26:07;5.47;;;2.85;;
72797;SDS011;61084;55.816;37.036;2023-07-29T03:28:40;6.60;;;3.22;;
72797;SDS011;61084;55.816;37.036;2023-07-29T03:31:07;6.70;;;3.60;;
72797;SDS011;61084;55.816;37.036;2023-07-29T03:33:33;5.55;;;2.97;;
72797;SDS011;61084;55.816;37.036;2023-07-29T03:35:59;5.82;;;3.13;;
72797;SDS011;61084;55.816;37.036;2023-07-29T03:38:25;6.50;;;3.20;;
72797;SDS011;61084;55.816;37.036;2023-07-29T03:40:51;5.13;;;2.60;;
72797;SDS011;61084;55.816;37.036;2023-07-29T03:43:19;5.25;;;3.10;;
72797;SDS011;61084;55.816;37.036;2023-07-29T03:45:45;6.28;;;2.90;;
72797;SDS011;61084;55.816;37.036;2023-07-29T03:48:12;8.93;;;4.43;;
72797;SDS011;61084;55.816;37.036;2023-07-29T03:50:38;5.70;;;3.10;;
72797;SDS011;61084;55.816;37.036;2023-07-29T03:55:31;5.25;;;3.03;;
72797;SDS011;61084;55.816;37.036;2023-07-29T03:57:58;9.82;;;3.47;;
72797;SDS011;61084;55.816;37.036;2023-07-29T04:00:24;7.03;;;3.40;;
72797;SDS011;61084;55.816;37.036;2023-07-29T04:02:51;7.15;;;3.80;;
72797;SDS011;61084;55.816;37.036;2023-07-29T04:05:17;11.63;;;4.15;;
72797;SDS011;61084;55.816;37.036;2023-07-29T04:07:44;7.93;;;3.78;;
72797;SDS011;61084;55.816;37.036;2023-07-29T04:10:10;4.75;;;3.22;;
72797;SDS011;61084;55.816;37.036;2023-07-29T04:12:38;6.88;;;3.63;;
72797;SDS011;61084;55.816;37.036;2023-07-29T04:15:04;6.43;;;3.20;;
72797;SDS011;61084;55.816;37.036;2023-07-29T04:17:31;4.75;;;3.20;;
72797;SDS011;61084;55.816;37.036;2023-07-29T04:19:58;8.52;;;3.40;;
72797;SDS011;61084;55.816;37.036;2023-07-29T04:22:30;6.82;;;3.00;;
72797;SDS011;61084;55.816;37.036;2023-07-29T04:24:56;8.13;;;3.60;;
72797;SDS011;61084;55.816;37.036;2023-07-29T04:27:22;7.40;;;3.38;;
72797;SDS011;61084;55.816;37.036;2023-07-29T04:29:48;7.88;;;3.50;;
72797;SDS011;61084;55.816;37.036;2023-07-29T04:32:14;4.97;;;3.20;;
72797;SDS011;61084;55.816;37.036;2023-07-29T04:34:42;3.42;;;2.50;;
72797;SDS011;61084;55.816;37.036;2023-07-29T04:37:08;3.92;;;2.70;;
72797;SDS011;61084;55.816;37.036;2023-07-29T04:39:33;3.40;;;2.65;;
72797;SDS011;61084;55.816;37.036;2023-07-29T04:41:59;4.32;;;2.75;;
72797;SDS011;61084;55.816;37.036;2023-07-29T04:44:26;9.25;;;3.88;;
72797;SDS011;61084;55.816;37.036;2023-07-29T04:46:52;3.00;;;2.30;;
72797;SDS011;61084;55.816;37.036;2023-07-29T04:49:19;4.85;;;2.63;;
72797;SDS011;61084;55.816;37.036;2023-07-29T04:51:46;4.95;;;2.53;;
72797;SDS011;61084;55.816;37.036;2023-07-29T04:54:11;5.25;;;2.65;;
72797;SDS011;61084;55.816;37.036;2023-07-29T04:56:37;2.75;;;2.50;;
72797;SDS011;61084;55.816;37.036;2023-07-29T04:59:03;3.83;;;2.35;;
72797;SDS011;61084;55.816;37.036;2023-07-29T05:01:30;5.30;;;2.60;;
72797;SDS011;61084;55.816;37.036;2023-07-29T05:03:56;3.60;;;2.30;;
72797;SDS011;61084;55.816;37.036;2023-07-29T05:06:22;2.72;;;2.53;;
72797;SDS011;61084;55.816;37.036;2023-07-29T05:08:49;3.78;;;2.80;;
72797;SDS011;61084;55.816;37.036;2023-07-29T05:11:15;5.95;;;3.10;;
72797;SDS011;61084;55.816;37.036;2023-07-29T05:13:42;4.05;;;3.03;;
72797;SDS011;61084;55.816;37.036;2023-07-29T05:16:10;4.15;;;2.55;;
72797;SDS011;61084;55.816;37.036;2023-07-29T05:18:36;3.88;;;2.38;;
72797;SDS011;61084;55.816;37.036;2023-07-29T05:21:03;3.65;;;2.60;;
72797;SDS011;61084;55.816;37.036;2023-07-29T05:23:29;2.63;;;2.13;;
72797;SDS011;61084;55.816;37.036;2023-07-29T05:25:55;4.20;;;2.40;;
72797;SDS011;61084;55.816;37.036;2023-07-29T05:28:21;3.92;;;2.10;;
72797;SDS011;61084;55.816;37.036;2023-07-29T05:30:47;5.65;;;2.17;;
72797;SDS011;61084;55.816;37.036;2023-07-29T05:33:13;5.18;;;2.28;;
72797;SDS011;61084;55.816;37.036;2023-07-29T05:35:39;6.90;;;2.50;;
72797;SDS011;61084;55.816;37.036;2023-07-29T05:38:06;5.68;;;2.20;;
72797;SDS011;61084;55.816;37.036;2023-07-29T05:40:34;9.18;;;2.50;;
72797;SDS011;61084;55.816;37.036;2023-07-29T05:43:00;6.20;;;2.70;;
72797;SDS011;61084;55.816;37.036;2023-07-29T05:45:26;3.97;;;2.20;;
72797;SDS011;61084;55.816;37.036;2023-07-29T05:47:52;4.47;;;2.20;;
72797;SDS011;61084;55.816;37.036;2023-07-29T05:50:19;4.18;;;2.88;;
72797;SDS011;61084;55.816;37.036;2023-07-29T05:52:46;6.70;;;2.50;;
72797;SDS011;61084;55.816;37.036;2023-07-29T05:55:12;7.90;;;2.53;;
72797;SDS011;61084;55.816;37.036;2023-07-29T05:57:38;8.18;;;2.70;;
72797;SDS011;61084;55.816;37.036;2023-07-29T06:00:07;4.38;;;2.70;;
72797;SDS011;61084;55.816;37.036;2023-07-29T06:02:39;6.97;;;2.55;;
72797;SDS011;61084;55.816;37.036;2023-07-29T06:05:09;3.50;;;2.95;;
72797;SDS011;61084;55.816;37.036;2023-07-29T06:07:35;5.60;;;2.47;;
72797;SDS011;61084;55.816;37.036;2023-07-29T06:10:01;5.80;;;3.03;;
72797;SDS011;61084;55.816;37.036;2023-07-29T06:12:30;6.35;;;3.47;;
72797;SDS011;61084;55.816;37.036;2023-07-29T06:14:56;4.28;;;2.85;;
72797;SDS011;61084;55.816;37.036;2023-07-29T06:17:21;8.18;;;3.20;;
72797;SDS011;61084;55.816;37.036;2023-07-29T06:19:47;8.63;;;3.10;;
72797;SDS011;61084;55.816;37.036;2023-07-29T06:22:13;3.78;;;2.55;;
72797;SDS011;61084;55.816;37.036;2023-07-29T06:24:39;5.47;;;2.72;;
72797;SDS011;61084;55.816;37.036;2023-07-29T06:27:05;3.38;;;2.58;;
72797;SDS011;61084;55.816;37.036;2023-07-29T06:29:31;5.85;;;2.80;;
72797;SDS011;61084;55.816;37.036;2023-07-29T06:31:58;4.07;;;2.58;;
72797;SDS011;61084;55.816;37.036;2023-07-29T06:36:49;6.20;;;1.95;;
72797;SDS011;61084;55.816;37.036;2023-07-29T06:39:15;3.53;;;2.28;;
72797;SDS011;61084;55.816;37.036;2023-07-29T06:41:41;4.18;;;2.40;;
72797;SDS011;61084;55.816;37.036;2023-07-29T06:44:08;4.55;;;2.08;;
72797;SDS011;61084;55.816;37.036;2023-07-29T06:46:34;2.45;;;2.10;;
72797;SDS011;61084;55.816;37.036;2023-07-29T06:49:00;4.97;;;2.55;;
72797;SDS011;61084;55.816;37.036;2023-07-29T06:51:26;3.47;;;1.90;;
72797;SDS011;61084;55.816;37.036;2023-07-29T06:53:54;4.53;;;2.15;;
72797;SDS011;61084;55.816;37.036;2023-07-29T06:56:20;4.47;;;1.90;;
72797;SDS011;61084;55.816;37.036;2023-07-29T06:58:46;5.53;;;2.03;;
72797;SDS011;61084;55.816;37.036;2023-07-29T07:01:12;4.10;;;2.30;;
72797;SDS011;61084;55.816;37.036;2023-07-29T07:03:38;4.22;;;2.10;;
72797;SDS011;61084;55.816;37.036;2023-07-29T07:06:04;5.50;;;2.13;;
72797;SDS011;61084;55.816;37.036;2023-07-29T07:10:56;6.38;;;2.80;;
72797;SDS011;61084;55.816;37.036;2023-07-29T07:13:22;7.13;;;2.20;;
72797;SDS011;61084;55.816;37.036;2023-07-29T07:15:48;2.40;;;1.80;;
72797;SDS011;61084;55.816;37.036;2023-07-29T07:18:14;5.18;;;2.08;;
72797;SDS011;61084;55.816;37.036;2023-07-29T07:20:40;4.90;;;1.88;;
72797;SDS011;61084;55.816;37.036;2023-07-29T07:23:06;3.22;;;1.92;;
72797;SDS011;61084;55.816;37.036;2023-07-29T07:25:36;4.28;;;2.15;;
72797;SDS011;61084;55.816;37.036;2023-07-29T07:28:02;8.68;;;2.20;;
72797;SDS011;61084;55.816;37.036;2023-07-29T07:30:28;5.00;;;1.90;;
72797;SDS011;61084;55.816;37.036;2023-07-29T07:32:54;4.90;;;2.05;;
72797;SDS011;61084;55.816;37.036;2023-07-29T07:35:20;5.43;;;2.22;;
72797;SDS011;61084;55.816;37.036;2023-07-29T07:37:46;6.15;;;2.17;;
72797;SDS011;61084;55.816;37.036;2023-07-29T07:40:12;2.97;;;1.90;;
72797;SDS011;61084;55.816;37.036;2023-07-29T07:42:38;6.05;;;2.25;;
72797;SDS011;61084;55.816;37.036;2023-07-29T07:45:05;2.72;;;1.50;;
72797;SDS011;61084;55.816;37.036;2023-07-29T07:47:32;5.75;;;1.73;;
72797;SDS011;61084;55.816;37.036;2023-07-29T07:49:58;2.08;;;1.38;;
72797;SDS011;61084;55.816;37.036;2023-07-29T07:52:24;5.10;;;1.67;;
72797;SDS011;61084;55.816;37.036;2023-07-29T07:54:53;6.43;;;1.50;;
72797;SDS011;61084;55.816;37.036;2023-07-29T07:57:20;4.90;;;1.65;;
72797;SDS011;61084;55.816;37.036;2023-07-29T07:59:46;4.50;;;1.90;;
72797;SDS011;61084;55.816;37.036;2023-07-29T08:02:12;5.18;;;1.85;;
72797;SDS011;61084;55.816;37.036;2023-07-29T08:04:38;7.78;;;2.28;;
72797;SDS011;61084;55.816;37.036;2023-07-29T08:07:04;4.65;;;2.03;;
72797;SDS011;61084;55.816;37.036;2023-07-29T08:09:30;3.97;;;2.20;;
72797;SDS011;61084;55.816;37.036;2023-07-29T08:11:56;2.78;;;1.50;;
72797;SDS011;61084;55.816;37.036;2023-07-29T08:14:22;4.22;;;1.90;;
72797;SDS011;61084;55.816;37.036;2023-07-29T08:16:48;3.70;;;1.88;;
72797;SDS011;61084;55.816;37.036;2023-07-29T08:19:13;2.45;;;1.67;;
72797;SDS011;61084;55.816;37.036;2023-07-29T08:21:39;2.63;;;1.55;;
72797;SDS011;61084;55.816;37.036;2023-07-29T08:24:05;3.03;;;2.28;;
72797;SDS011;61084;55.816;37.036;2023-07-29T08:26:33;3.88;;;2.15;;
72797;SDS011;61084;55.816;37.036;2023-07-29T08:28:58;3.33;;;1.80;;
72797;SDS011;61084;55.816;37.036;2023-07-29T08:31:24;2.55;;;1.23;;
72797;SDS011;61084;55.816;37.036;2023-07-29T08:33:50;2.90;;;1.77;;
72797;SDS011;61084;55.816;37.036;2023-07-29T08:36:16;3.33;;;1.88;;
72797;SDS011;61084;55.816;37.036;2023-07-29T08:38:42;4.55;;;2.17;;
72797;SDS011;61084;55.816;37.036;2023-07-29T08:41:45;2.80;;;1.63;;
72797;SDS011;61084;55.816;37.036;2023-07-29T08:44:09;1.92;;;1.40;;
72797;SDS011;61084;55.816;37.036;2023-07-29T08:46:43;2.67;;;1.63;;
72797;SDS011;61084;55.816;37.036;2023-07-29T08:49:11;3.60;;;1.52;;
72797;SDS011;61084;55.816;37.036;2023-07-29T08:51:39;2.35;;;1.40;;
72797;SDS011;61084;55.816;37.036;2023-07-29T08:54:07;6.22;;;2.08;;
72797;SDS011;61084;55.816;37.036;2023-07-29T08:56:34;4.40;;;1.80;;
72797;SDS011;61084;55.816;37.036;2023-07-29T08:59:00;8.90;;;1.77;;
72797;SDS011;61084;55.816;37.036;2023-07-29T09:01:27;4.47;;;1.58;;
72797;SDS011;61084;55.816;37.036;2023-07-29T09:03:56;3.30;;;1.50;;
72797;SDS011;61084;55.816;37.036;2023-07-29T09:06:22;3.10;;;1.30;;
72797;SDS011;61084;55.816;37.036;2023-07-29T09:08:51;3.50;;;1.63;;
72797;SDS011;61084;55.816;37.036;2023-07-29T09:11:25;3.67;;;1.30;;
72797;SDS011;61084;55.816;37.036;2023-07-29T09:16:18;2.42;;;1.70;;
72797;SDS011;61084;55.816;37.036;2023-07-29T09:18:49;4.57;;;1.90;;
72797;SDS011;61084;55.816;37.036;2023-07-29T09:21:24;2.55;;;1.20;;
72797;SDS011;61084;55.816;37.036;2023-07-29T09:23:52;6.15;;;2.30;;
72797;SDS011;61084;55.816;37.036;2023-07-29T09:28:51;3.25;;;1.40;;
72797;SDS011;61084;55.816;37.036;2023-07-29T09:31:19;2.13;;;1.30;;
72797;SDS011;61084;55.816;37.036;2023-07-29T09:33:48;2.97;;;1.20;;
72797;SDS011;61084;55.816;37.036;2023-07-29T09:36:14;3.08;;;1.38;;
72797;SDS011;61084;55.816;37.036;2023-07-29T09:38:40;4.75;;;1.27;;
72797;SDS011;61084;55.816;37.036;2023-07-29T09:41:06;1.85;;;1.23;;
72797;SDS011;61084;55.816;37.036;2023-07-29T09:43:33;3.30;;;1.70;;
72797;SDS011;61084;55.816;37.036;2023-07-29T09:46:00;2.33;;;1.60;;
72797;SDS011;61084;55.816;37.036;2023-07-29T09:48:27;3.70;;;1.50;;
72797;SDS011;61084;55.816;37.036;2023-07-29T09:50:56;1.75;;;1.30;;
72797;SDS011;61084;55.816;37.036;2023-07-29T09:53:22;3.60;;;1.20;;
72797;SDS011;61084;55.816;37.036;2023-07-29T09:55:48;2.10;;;1.40;;
72797;SDS011;61084;55.816;37.036;2023-07-29T09:58:19;3.22;;;1.35;;
72797;SDS011;61084;55.816;37.036;2023-07-29T10:00:54;3.08;;;1.40;;
72797;SDS011;61084;55.816;37.036;2023-07-29T10:03:20;4.70;;;1.35;;
72797;SDS011;61084;55.816;37.036;2023-07-29T10:05:46;3.30;;;1.50;;
72797;SDS011;61084;55.816;37.036;2023-07-29T10:08:13;3.72;;;1.35;;
72797;SDS011;61084;55.816;37.036;2023-07-29T10:10:42;6.43;;;1.60;;
72797;SDS011;61084;55.816;37.036;2023-07-29T10:13:09;2.00;;;1.20;;
72797;SDS011;61084;55.816;37.036;2023-07-29T10:15:35;3.60;;;1.60;;
72797;SDS011;61084;55.816;37.036;2023-07-29T10:18:02;2.63;;;1.38;;
72797;SDS011;61084;55.816;37.036;2023-07-29T10:20:30;2.17;;;1.40;;
72797;SDS011;61084;55.816;37.036;2023-07-29T10:22:59;7.38;;;1.60;;
72797;SDS011;61084;55.816;37.036;2023-07-29T10:25:26;3.35;;;1.30;;
72797;SDS011;61084;55.816;37.036;2023-07-29T10:28:06;2.03;;;1.17;;
72797;SDS011;61084;55.816;37.036;2023-07-29T10:30:33;2.90;;;1.33;;
72797;SDS011;61084;55.816;37.036;2023-07-29T10:33:02;4.13;;;2.50;;
72797;SDS011;61084;55.816;37.036;2023-07-29T10:35:30;5.18;;;2.72;;
72797;SDS011;61084;55.816;37.036;2023-07-29T10:37:58;5.00;;;2.45;;
72797;SDS011;61084;55.816;37.036;2023-07-29T10:40:25;5.00;;;2.22;;
72797;SDS011;61084;55.816;37.036;2023-07-29T10:43:07;3.65;;;1.73;;
72797;SDS011;61084;55.816;37.036;2023-07-29T10:45:41;4.03;;;1.23;;
72797;SDS011;61084;55.816;37.036;2023-07-29T10:48:40;5.40;;;2.80;;
72797;SDS011;61084;55.816;37.036;2023-07-29T10:54:09;2.85;;;1.50;;
72797;SDS011;61084;55.816;37.036;2023-07-29T10:56:37;1.67;;;1.27;;
72797;SDS011;61084;55.816;37.036;2023-07-29T11:01:39;4.00;;;1.30;;
72797;SDS011;61084;55.816;37.036;2023-07-29T11:09:51;2.80;;;1.40;;
72797;SDS011;61084;55.816;37.036;2023-07-29T11:17:45;2.35;;;1.20;;
72797;SDS011;61084;55.816;37.036;2023-07-29T11:20:34;3.00;;;1.83;;
72797;SDS011;61084;55.816;37.036;2023-07-29T11:23:00;1.52;;;1.30;;
72797;SDS011;61084;55.816;37.036;2023-07-29T11:25:28;5.05;;;1.45;;
72797;SDS011;61084;55.816;37.036;2023-07-29T11:27:56;4.57;;;1.70;;
72797;SDS011;61084;55.816;37.036;2023-07-29T11:30:23;9.15;;;1.90;;
72797;SDS011;61084;55.816;37.036;2023-07-29T11:32:52;5.32;;;2.53;;
72797;SDS011;61084;55.816;37.036;2023-07-29T11:35:19;9.20;;;4.30;;
72797;SDS011;61084;55.816;37.036;2023-07-29T11:37:46;9.35;;;3.65;;
72797;SDS011;61084;55.816;37.036;2023-07-29T11:40:14;6.07;;;3.33;;
72797;SDS011;61084;55.816;37.036;2023-07-29T11:42:42;7.20;;;2.50;;
72797;SDS011;61084;55.816;37.036;2023-07-29T11:45:08;4.53;;;2.72;;
72797;SDS011;61084;55.816;37.036;2023-07-29T11:47:35;12.68;;;7.45;;
72797;SDS011;61084;55.816;37.036;2023-07-29T11:50:12;12.40;;;7.93;;
72797;SDS011;61084;55.816;37.036;2023-07-29T11:52:44;7.97;;;3.60;;
72797;SDS011;61084;55.816;37.036;2023-07-29T11:55:11;5.03;;;3.10;;
72797;SDS011;61084;55.816;37.036;2023-07-29T11:57:39;6.97;;;2.85;;
72797;SDS011;61084;55.816;37.036;2023-07-29T12:00:06;4.35;;;1.83;;
72797;SDS011;61084;55.816;37.036;2023-07-29T12:02:36;2.50;;;1.92;;
72797;SDS011;61084;55.816;37.036;2023-07-29T12:05:08;4.07;;;1.92;;
72797;SDS011;61084;55.816;37.036;2023-07-29T12:07:35;5.05;;;2.35;;
72797;SDS011;61084;55.816;37.036;2023-07-29T12:10:03;3.10;;;1.90;;
72797;SDS011;61084;55.816;37.036;2023-07-29T12:12:30;2.60;;;1.70;;
72797;SDS011;61084;55.816;37.036;2023-07-29T12:14:56;2.90;;;1.55;;
72797;SDS011;61084;55.816;37.036;2023-07-29T12:17:22;1.70;;;1.48;;
72797;SDS011;61084;55.816;37.036;2023-07-29T12:19:48;2.97;;;1.75;;
72797;SDS011;61084;55.816;37.036;2023-07-29T12:22:17;3.53;;;1.65;;
72797;SDS011;61084;55.816;37.036;2023-07-29T12:24:44;2.83;;;1.58;;
72797;SDS011;61084;55.816;37.036;2023-07-29T12:27:11;4.32;;;1.55;;
72797;SDS011;61084;55.816;37.036;2023-07-29T12:29:47;2.80;;;1.50;;
72797;SDS011;61084;55.816;37.036;2023-07-29T12:32:14;2.30;;;1.33;;
72797;SDS011;61084;55.816;37.036;2023-07-29T12:34:39;5.50;;;1.58;;
72797;SDS011;61084;55.816;37.036;2023-07-29T12:37:06;2.42;;;1.33;;
72797;SDS011;61084;55.816;37.036;2023-07-29T12:39:34;4.03;;;1.33;;
72797;SDS011;61084;55.816;37.036;2023-07-29T12:42:05;3.72;;;1.50;;
72797;SDS011;61084;55.816;37.036;2023-07-29T12:44:32;3.42;;;1.42;;
72797;SDS011;61084;55.816;37.036;2023-07-29T12:47:00;2.60;;;1.58;;
72797;SDS011;61084;55.816;37.036;2023-07-29T12:49:28;5.10;;;1.80;;
72797;SDS011;61084;55.816;37.036;2023-07-29T12:51:55;3.60;;;1.65;;
72797;SDS011;61084;55.816;37.036;2023-07-29T12:54:22;5.88;;;1.73;;
72797;SDS011;61084;55.816;37.036;2023-07-29T12:56:48;4.93;;;1.50;;
72797;SDS011;61084;55.816;37.036;2023-07-29T12:59:14;2.72;;;1.38;;
72797;SDS011;61084;55.816;37.036;2023-07-29T13:01:40;2.90;;;1.38;;
72797;SDS011;61084;55.816;37.036;2023-07-29T13:04:06;2.05;;;1.33;;
72797;SDS011;61084;55.816;37.036;2023-07-29T13:06:32;3.58;;;1.60;;
72797;SDS011;61084;55.816;37.036;2023-07-29T13:11:24;2.63;;;1.60;;
72797;SDS011;61084;55.816;37.036;2023-07-29T13:13:51;6.00;;;1.50;;
72797;SDS011;61084;55.816;37.036;2023-07-29T13:16:17;2.42;;;1.30;;
72797;SDS011;61084;55.816;37.036;2023-07-29T13:18:44;4.05;;;1.50;;
72797;SDS011;61084;55.816;37.036;2023-07-29T13:23:36;5.78;;;1.40;;
72797;SDS011;61084;55.816;37.036;2023-07-29T13:26:01;2.58;;;1.50;;
72797;SDS011;61084;55.816;37.036;2023-07-29T13:28:28;3.90;;;1.50;;
72797;SDS011;61084;55.816;37.036;2023-07-29T13:33:19;2.53;;;1.50;;
72797;SDS011;61084;55.816;37.036;2023-07-29T13:35:45;7.47;;;1.58;;
72797;SDS011;61084;55.816;37.036;2023-07-29T13:38:11;3.28;;;1.70;;
72797;SDS011;61084;55.816;37.036;2023-07-29T13:40:37;2.53;;;1.42;;
72797;SDS011;61084;55.816;37.036;2023-07-29T13:43:03;3.95;;;1.35;;
72797;SDS011;61084;55.816;37.036;2023-07-29T13:45:29;5.53;;;1.60;;
72797;SDS011;61084;55.816;37.036;2023-07-29T13:47:55;1.80;;;1.52;;
72797;SDS011;61084;55.816;37.036;2023-07-29T13:50:21;3.60;;;1.50;;
72797;SDS011;61084;55.816;37.036;2023-07-29T13:52:46;5.25;;;1.77;;
72797;SDS011;61084;55.816;37.036;2023-07-29T13:55:12;3.22;;;1.60;;
72797;SDS011;61084;55.816;37.036;2023-07-29T13:57:38;3.47;;;1.67;;
72797;SDS011;61084;55.816;37.036;2023-07-29T14:00:05;2.80;;;1.40;;
72797;SDS011;61084;55.816;37.036;2023-07-29T14:02:39;2.45;;;1.48;;
72797;SDS011;61084;55.816;37.036;2023-07-29T14:05:05;3.83;;;1.40;;
72797;SDS011;61084;55.816;37.036;2023-07-29T14:07:33;4.32;;;1.50;;
72797;SDS011;61084;55.816;37.036;2023-07-29T14:09:59;3.90;;;1.42;;
72797;SDS011;61084;55.816;37.036;2023-07-29T14:12:24;3.28;;;1.50;;
72797;SDS011;61084;55.816;37.036;2023-07-29T14:14:51;2.28;;;1.50;;
72797;SDS011;61084;55.816;37.036;2023-07-29T14:17:16;4.43;;;1.75;;
72797;SDS011;61084;55.816;37.036;2023-07-29T14:19:42;4.47;;;1.55;;
72797;SDS011;61084;55.816;37.036;2023-07-29T14:22:08;2.88;;;1.50;;
72797;SDS011;61084;55.816;37.036;2023-07-29T14:24:34;3.58;;;1.60;;
72797;SDS011;61084;55.816;37.036;2023-07-29T14:27:00;4.47;;;1.42;;
72797;SDS011;61084;55.816;37.036;2023-07-29T14:29:26;3.05;;;1.38;;
72797;SDS011;61084;55.816;37.036;2023-07-29T14:31:52;4.25;;;1.50;;
72797;SDS011;61084;55.816;37.036;2023-07-29T14:34:17;1.85;;;1.30;;
72797;SDS011;61084;55.816;37.036;2023-07-29T14:36:43;3.05;;;1.30;;
72797;SDS011;61084;55.816;37.036;2023-07-29T14:39:09;5.85;;;1.70;;
72797;SDS011;61084;55.816;37.036;2023-07-29T14:41:35;5.20;;;1.40;;
72797;SDS011;61084;55.816;37.036;2023-07-29T14:44:01;2.50;;;1.30;;
72797;SDS011;61084;55.816;37.036;2023-07-29T14:46:26;2.13;;;1.40;;
72797;SDS011;61084;55.816;37.036;2023-07-29T14:48:52;2.65;;;1.65;;
72797;SDS011;61084;55.816;37.036;2023-07-29T14:51:18;4.30;;;1.60;;
72797;SDS011;61084;55.816;37.036;2023-07-29T14:56:10;3.50;;;1.40;;
72797;SDS011;61084;55.816;37.036;2023-07-29T14:58:36;4.85;;;1.85;;
72797;SDS011;61084;55.816;37.036;2023-07-29T15:01:02;2.28;;;1.40;;
72797;SDS011;61084;55.816;37.036;2023-07-29T15:03:28;4.32;;;1.45;;
72797;SDS011;61084;55.816;37.036;2023-07-29T15:05:54;2.10;;;1.15;;
72797;SDS011;61084;55.816;37.036;2023-07-29T15:08:20;1.58;;;1.27;;
72797;SDS011;61084;55.816;37.036;2023-07-29T15:10:49;1.88;;;1.33;;
72797;SDS011;61084;55.816;37.036;2023-07-29T15:13:15;2.53;;;1.02;;
72797;SDS011;61084;55.816;37.036;2023-07-29T15:18:10;5.78;;;1.60;;